createdAt,value
2022-10-19T00:00:24.251Z,1004.78
2022-10-19T00:01:24.255Z,1004.75
2022-10-19T00:02:24.328Z,1004.77
2022-10-19T00:03:24.232Z,1004.67
2022-10-19T00:04:24.223Z,1004.73
2022-10-19T00:05:24.218Z,1004.75
2022-10-19T00:06:24.234Z,1004.71
2022-10-19T00:07:24.195Z,1004.70
2022-10-19T00:08:24.203Z,1004.74
2022-10-19T00:09:24.186Z,1004.73
2022-10-19T00:10:24.175Z,1004.69
2022-10-19T00:11:24.194Z,1004.68
2022-10-19T00:12:24.179Z,1004.72
2022-10-19T00:13:24.160Z,1004.75
2022-10-19T00:14:24.153Z,1004.76
2022-10-19T00:15:24.144Z,1004.76
2022-10-19T00:16:24.139Z,1004.74
2022-10-19T00:17:24.156Z,1004.81
2022-10-19T00:18:24.159Z,1004.85
2022-10-19T00:19:24.126Z,1004.86
2022-10-19T00:20:24.125Z,1004.90
2022-10-19T00:21:24.109Z,1004.86
2022-10-19T00:22:24.107Z,1004.86
2022-10-19T00:23:24.085Z,1004.93
2022-10-19T00:24:24.104Z,1004.94
2022-10-19T00:25:24.067Z,1004.93
2022-10-19T00:26:24.070Z,1004.88
2022-10-19T00:27:24.072Z,1004.88
2022-10-19T00:28:24.062Z,1004.96
2022-10-19T00:29:24.043Z,1004.93
2022-10-19T00:30:24.043Z,1004.91
2022-10-19T00:31:24.036Z,1004.92
2022-10-19T00:32:24.028Z,1004.97
2022-10-19T00:33:24.039Z,1004.95
2022-10-19T00:34:24.015Z,1004.93
2022-10-19T00:35:24.002Z,1004.93
2022-10-19T00:36:24.007Z,1005.03
2022-10-19T00:37:23.999Z,1005.00
2022-10-19T00:38:23.991Z,1005.01
2022-10-19T00:39:23.995Z,1005.01
2022-10-19T00:40:23.977Z,1005.05
2022-10-19T00:41:23.959Z,1005.00
2022-10-19T00:42:23.960Z,1005.02
2022-10-19T00:43:23.951Z,1005.00
2022-10-19T00:44:23.968Z,1004.98
2022-10-19T00:45:23.940Z,1005.03
2022-10-19T00:46:23.937Z,1005.04
2022-10-19T00:47:23.920Z,1005.04
2022-10-19T00:48:23.926Z,1005.10
2022-10-19T00:49:23.923Z,1005.13
2022-10-19T00:50:23.903Z,1005.10
2022-10-19T00:51:23.900Z,1005.11
2022-10-19T00:52:23.892Z,1005.10
2022-10-19T00:53:23.887Z,1005.09
2022-10-19T00:54:23.878Z,1005.16
2022-10-19T00:55:23.879Z,1005.14
2022-10-19T00:56:23.872Z,1005.14
2022-10-19T00:57:23.876Z,1005.07
2022-10-19T00:58:23.859Z,1005.14
2022-10-19T00:59:23.849Z,1005.10
2022-10-19T01:00:23.853Z,1005.15
2022-10-19T01:01:23.907Z,1005.11
2022-10-19T01:02:23.843Z,1005.13
2022-10-19T01:03:23.819Z,1005.14
2022-10-19T01:04:23.806Z,1005.11
2022-10-19T01:05:23.804Z,1005.04
2022-10-19T01:06:23.810Z,1005.08
2022-10-19T01:07:23.791Z,1005.01
2022-10-19T01:08:23.791Z,1004.99
2022-10-19T01:09:23.751Z,1004.96
2022-10-19T01:10:23.767Z,1004.95
2022-10-19T01:11:23.775Z,1004.97
2022-10-19T01:12:23.776Z,1004.87
2022-10-19T01:13:23.750Z,1004.90
2022-10-19T01:14:23.739Z,1004.95
2022-10-19T01:15:23.719Z,1004.95
2022-10-19T01:16:23.729Z,1004.92
2022-10-19T01:17:23.728Z,1004.91
2022-10-19T01:18:23.712Z,1004.87
2022-10-19T01:19:23.699Z,1004.88
2022-10-19T01:20:23.696Z,1004.95
2022-10-19T01:21:23.683Z,1004.85
2022-10-19T01:22:23.702Z,1004.84
2022-10-19T01:23:23.684Z,1004.90
2022-10-19T01:24:23.677Z,1004.95
2022-10-19T01:25:23.659Z,1004.88
2022-10-19T01:26:23.659Z,1004.89
2022-10-19T01:27:23.659Z,1004.89
2022-10-19T01:28:23.631Z,1004.89
2022-10-19T01:29:23.663Z,1004.87
2022-10-19T01:30:23.639Z,1004.94
2022-10-19T01:31:23.615Z,1004.94
2022-10-19T01:32:23.615Z,1004.89
2022-10-19T01:33:23.615Z,1004.87
2022-10-19T01:34:23.615Z,1004.84
2022-10-19T01:35:23.612Z,1004.88
2022-10-19T01:36:23.594Z,1004.88
2022-10-19T01:37:23.579Z,1004.88
2022-10-19T01:38:23.594Z,1004.88
2022-10-19T01:39:23.566Z,1004.89
2022-10-19T01:40:23.555Z,1004.94
2022-10-19T01:41:23.546Z,1004.90
2022-10-19T01:42:23.543Z,1004.87
2022-10-19T01:43:23.554Z,1004.85
2022-10-19T01:44:23.531Z,1004.82
2022-10-19T01:45:23.530Z,1004.84
2022-10-19T01:46:23.522Z,1004.78
2022-10-19T01:47:23.518Z,1004.77
2022-10-19T01:48:23.507Z,1004.75
2022-10-19T01:49:23.500Z,1004.73
2022-10-19T01:50:23.490Z,1004.68
2022-10-19T01:51:23.511Z,1004.64
2022-10-19T01:52:23.479Z,1004.61
2022-10-19T01:53:23.479Z,1004.56
2022-10-19T01:54:23.476Z,1004.54
2022-10-19T01:55:23.476Z,1004.53
2022-10-19T01:56:23.438Z,1004.53
2022-10-19T01:57:23.461Z,1004.54
2022-10-19T01:58:23.461Z,1004.58
2022-10-19T01:59:23.438Z,1004.56
2022-10-19T02:00:23.434Z,1004.57
2022-10-19T02:01:23.425Z,1004.58
2022-10-19T02:02:23.434Z,1004.52
2022-10-19T02:03:23.414Z,1004.53
2022-10-19T02:04:23.393Z,1004.57
2022-10-19T02:05:23.464Z,1004.49
2022-10-19T02:06:23.395Z,1004.54
2022-10-19T02:07:23.430Z,1004.53
2022-10-19T02:08:23.370Z,1004.51
2022-10-19T02:09:23.387Z,1004.48
2022-10-19T02:10:23.367Z,1004.52
2022-10-19T02:11:23.364Z,1004.48
2022-10-19T02:12:23.348Z,1004.49
2022-10-19T02:13:23.343Z,1004.48
2022-10-19T02:14:23.339Z,1004.47
2022-10-19T02:15:23.388Z,1004.46
2022-10-19T02:16:23.318Z,1004.45
2022-10-19T02:17:23.316Z,1004.45
2022-10-19T02:18:23.294Z,1004.48
2022-10-19T02:20:23.335Z,1004.57
2022-10-19T02:21:23.274Z,1004.61
2022-10-19T02:22:23.281Z,1004.58
2022-10-19T02:23:23.264Z,1004.64
2022-10-19T02:24:23.289Z,1004.62
2022-10-19T02:25:23.258Z,1004.61
2022-10-19T02:26:23.250Z,1004.60
2022-10-19T02:27:23.262Z,1004.61
2022-10-19T02:28:23.231Z,1004.64
2022-10-19T02:29:23.258Z,1004.60
2022-10-19T02:30:23.246Z,1004.65
2022-10-19T02:31:23.224Z,1004.67
2022-10-19T02:32:23.214Z,1004.66
2022-10-19T02:33:23.203Z,1004.64
2022-10-19T02:34:23.206Z,1004.62
2022-10-19T02:35:23.202Z,1004.59
2022-10-19T02:36:23.178Z,1004.62
2022-10-19T02:37:25.488Z,1004.61
2022-10-19T02:38:23.163Z,1004.63
2022-10-19T02:39:24.194Z,1004.66
2022-10-19T02:40:23.170Z,1004.61
2022-10-19T02:41:23.167Z,1004.58
2022-10-19T02:42:23.144Z,1004.65
2022-10-19T02:43:23.134Z,1004.63
2022-10-19T02:44:23.121Z,1004.71
2022-10-19T02:45:23.158Z,1004.68
2022-10-19T02:46:23.118Z,1004.62
2022-10-19T02:47:23.106Z,1004.64
2022-10-19T02:48:23.098Z,1004.65
2022-10-19T02:49:23.094Z,1004.70
2022-10-19T02:50:23.107Z,1004.62
2022-10-19T02:51:23.099Z,1004.62
2022-10-19T02:52:23.066Z,1004.63
2022-10-19T02:53:23.053Z,1004.62
2022-10-19T02:54:23.054Z,1004.58
2022-10-19T02:55:23.086Z,1004.58
2022-10-19T02:56:23.038Z,1004.66
2022-10-19T02:57:23.036Z,1004.61
2022-10-19T02:58:23.058Z,1004.61
2022-10-19T02:59:23.025Z,1004.63
2022-10-19T03:00:23.014Z,1004.61
2022-10-19T03:01:23.008Z,1004.61
2022-10-19T03:02:23.016Z,1004.59
2022-10-19T03:03:22.997Z,1004.56
2022-10-19T03:04:22.981Z,1004.57
2022-10-19T03:05:22.990Z,1004.67
2022-10-19T03:06:22.966Z,1004.64
2022-10-19T03:07:22.971Z,1004.57
2022-10-19T03:08:22.955Z,1004.63
2022-10-19T03:09:22.969Z,1004.61
2022-10-19T03:10:22.948Z,1004.69
2022-10-19T03:11:22.938Z,1004.68
2022-10-19T03:12:22.935Z,1004.72
2022-10-19T03:13:22.933Z,1004.71
2022-10-19T03:14:22.915Z,1004.75
2022-10-19T03:15:22.921Z,1004.69
2022-10-19T03:16:22.905Z,1004.67
2022-10-19T03:17:22.896Z,1004.68
2022-10-19T03:18:22.894Z,1004.71
2022-10-19T03:19:22.885Z,1004.74
2022-10-19T03:20:22.889Z,1004.71
2022-10-19T03:21:22.877Z,1004.76
2022-10-19T03:22:22.862Z,1004.74
2022-10-19T03:23:22.849Z,1004.75
2022-10-19T03:24:22.855Z,1004.77
2022-10-19T03:25:22.853Z,1004.76
2022-10-19T03:26:22.839Z,1004.81
2022-10-19T03:27:22.838Z,1004.81
2022-10-19T03:28:22.820Z,1004.82
2022-10-19T03:29:22.822Z,1004.79
2022-10-19T03:30:22.820Z,1004.80
2022-10-19T03:31:23.817Z,1004.81
2022-10-19T03:32:22.793Z,1004.80
2022-10-19T03:33:22.903Z,1004.88
2022-10-19T03:34:22.786Z,1004.83
2022-10-19T03:35:22.773Z,1004.88
2022-10-19T03:36:22.779Z,1004.83
2022-10-19T03:37:22.774Z,1004.85
2022-10-19T03:38:22.758Z,1004.86
2022-10-19T03:39:22.753Z,1004.92
2022-10-19T03:40:22.758Z,1004.89
2022-10-19T03:41:22.822Z,1004.87
2022-10-19T03:42:22.745Z,1004.90
2022-10-19T03:43:22.705Z,1004.90
2022-10-19T03:44:22.703Z,1004.91
2022-10-19T03:45:22.707Z,1004.91
2022-10-19T03:46:22.734Z,1004.91
2022-10-19T03:47:22.705Z,1004.84
2022-10-19T03:48:22.679Z,1004.83
2022-10-19T03:49:22.682Z,1004.83
2022-10-19T03:50:22.674Z,1004.80
2022-10-19T03:51:22.665Z,1004.77
2022-10-19T03:52:22.673Z,1004.74
2022-10-19T03:53:22.650Z,1004.77
2022-10-19T03:54:25.077Z,1004.83
2022-10-19T03:55:22.646Z,1004.84
2022-10-19T03:56:22.630Z,1004.82
2022-10-19T03:57:22.624Z,1004.89
2022-10-19T03:58:22.638Z,1004.91
2022-10-19T03:59:22.614Z,1004.86
2022-10-19T04:00:22.602Z,1004.85
2022-10-19T04:01:22.698Z,1004.88
2022-10-19T04:02:22.593Z,1004.86
2022-10-19T04:03:22.661Z,1004.84
2022-10-19T04:04:22.593Z,1004.87
2022-10-19T04:05:22.602Z,1004.86
2022-10-19T04:06:22.558Z,1004.83
2022-10-19T04:07:22.549Z,1004.88
2022-10-19T04:08:22.589Z,1004.88
2022-10-19T04:09:22.541Z,1004.88
2022-10-19T04:10:22.547Z,1004.93
2022-10-19T04:11:22.535Z,1004.87
2022-10-19T04:12:22.525Z,1004.93
2022-10-19T04:13:22.530Z,1004.89
2022-10-19T04:14:31.872Z,1004.87
2022-10-19T04:15:24.498Z,1004.90
2022-10-19T04:16:22.497Z,1004.91
2022-10-19T04:17:22.494Z,1004.96
2022-10-19T04:18:22.481Z,1004.94
2022-10-19T04:19:22.494Z,1004.91
2022-10-19T04:20:22.482Z,1004.93
2022-10-19T04:21:22.463Z,1004.90
2022-10-19T04:22:22.445Z,1004.94
2022-10-19T04:23:22.460Z,1004.98
2022-10-19T04:24:22.445Z,1004.96
2022-10-19T04:25:22.437Z,1004.93
2022-10-19T04:26:22.435Z,1004.99
2022-10-19T04:27:22.413Z,1004.97
2022-10-19T04:28:22.418Z,1004.97
2022-10-19T04:29:24.974Z,1004.93
2022-10-19T04:30:23.393Z,1005.00
2022-10-19T04:31:22.382Z,1004.92
2022-10-19T04:32:22.385Z,1004.99
2022-10-19T04:33:22.378Z,1004.99
2022-10-19T04:34:22.395Z,1005.04
2022-10-19T04:35:22.361Z,1005.02
2022-10-19T04:36:22.355Z,1005.00
2022-10-19T04:37:22.351Z,1005.02
2022-10-19T04:38:22.346Z,1005.04
2022-10-19T04:39:22.365Z,1004.95
2022-10-19T04:40:22.325Z,1004.98
2022-10-19T04:41:22.325Z,1005.00
2022-10-19T04:42:22.318Z,1005.03
2022-10-19T04:43:22.310Z,1005.02
2022-10-19T04:45:22.290Z,1005.04
2022-10-19T04:46:22.286Z,1004.98
2022-10-19T04:47:22.277Z,1005.01
2022-10-19T04:48:22.298Z,1004.99
2022-10-19T04:49:22.269Z,1005.02
2022-10-19T04:50:22.252Z,1005.02
2022-10-19T04:51:22.253Z,1005.02
2022-10-19T04:52:22.269Z,1005.03
2022-10-19T04:53:22.240Z,1005.03
2022-10-19T04:54:22.240Z,1005.01
2022-10-19T04:55:22.240Z,1005.00
2022-10-19T04:56:22.213Z,1004.99
2022-10-19T04:57:22.213Z,1004.98
2022-10-19T04:58:22.204Z,1005.02
2022-10-19T04:59:22.199Z,1004.97
2022-10-19T05:00:22.184Z,1004.95
2022-10-19T05:01:22.232Z,1004.89
2022-10-19T05:02:22.162Z,1004.84
2022-10-19T05:03:22.212Z,1004.90
2022-10-19T05:04:22.317Z,1004.90
2022-10-19T05:05:22.156Z,1004.88
2022-10-19T05:06:22.151Z,1004.89
2022-10-19T05:07:22.141Z,1004.82
2022-10-19T05:08:22.130Z,1004.84
2022-10-19T05:09:22.142Z,1004.94
2022-10-19T05:10:22.228Z,1004.88
2022-10-19T05:11:22.111Z,1004.83
2022-10-19T05:12:22.111Z,1004.92
2022-10-19T05:13:22.103Z,1004.89
2022-10-19T05:14:22.135Z,1004.86
2022-10-19T05:15:22.096Z,1004.84
2022-10-19T05:16:22.078Z,1004.81
2022-10-19T05:17:22.070Z,1004.82
2022-10-19T05:18:22.054Z,1004.89
2022-10-19T05:19:22.063Z,1004.81
2022-10-19T05:20:22.060Z,1004.82
2022-10-19T05:21:22.050Z,1004.85
2022-10-19T05:22:22.043Z,1004.86
2022-10-19T05:23:22.051Z,1004.82
2022-10-19T05:24:22.018Z,1004.83
2022-10-19T05:25:22.015Z,1004.89
2022-10-19T05:26:22.002Z,1004.79
2022-10-19T05:27:22.011Z,1004.81
2022-10-19T05:28:21.991Z,1004.82
2022-10-19T05:29:21.979Z,1004.80
2022-10-19T05:30:22.007Z,1004.82
2022-10-19T05:31:21.982Z,1004.83
2022-10-19T05:32:21.971Z,1004.85
2022-10-19T05:33:21.954Z,1004.85
2022-10-19T05:34:21.955Z,1004.83
2022-10-19T05:35:22.689Z,1004.85
2022-10-19T05:36:21.999Z,1004.86
2022-10-19T05:37:21.932Z,1004.82
2022-10-19T05:38:21.927Z,1004.84
2022-10-19T05:39:21.917Z,1004.83
2022-10-19T05:40:21.915Z,1004.85
2022-10-19T05:41:21.902Z,1004.86
2022-10-19T05:42:21.902Z,1004.82
2022-10-19T05:43:21.902Z,1004.80
2022-10-19T05:44:21.886Z,1004.82
2022-10-19T05:45:21.872Z,1004.79
2022-10-19T05:46:21.902Z,1004.81
2022-10-19T05:47:21.870Z,1004.86
2022-10-19T05:48:21.863Z,1004.86
2022-10-19T05:49:21.861Z,1004.86
2022-10-19T05:50:21.829Z,1004.92
2022-10-19T05:51:21.844Z,1004.86
2022-10-19T05:52:21.846Z,1004.91
2022-10-19T05:53:21.818Z,1004.88
2022-10-19T05:54:23.806Z,1004.95
2022-10-19T05:55:21.805Z,1004.97
2022-10-19T05:56:21.799Z,1004.93
2022-10-19T05:57:21.786Z,1004.95
2022-10-19T05:58:21.798Z,1004.92
2022-10-19T05:59:21.782Z,1004.87
2022-10-19T06:00:21.767Z,1004.89
2022-10-19T06:01:21.754Z,1004.92
2022-10-19T06:02:21.755Z,1004.92
2022-10-19T06:03:21.806Z,1004.89
2022-10-19T06:04:21.739Z,1004.86
2022-10-19T06:05:21.735Z,1004.89
2022-10-19T06:06:21.731Z,1004.86
2022-10-19T06:07:21.720Z,1004.88
2022-10-19T06:08:21.742Z,1004.92
2022-10-19T06:09:21.711Z,1004.91
2022-10-19T06:10:21.710Z,1004.91
2022-10-19T06:11:21.694Z,1004.96
2022-10-19T06:12:24.960Z,1004.91
2022-10-19T06:13:22.733Z,1004.95
2022-10-19T06:14:21.800Z,1004.98
2022-10-19T06:15:21.662Z,1004.95
2022-10-19T06:16:21.660Z,1004.97
2022-10-19T06:17:21.653Z,1005.02
2022-10-19T06:18:21.638Z,1004.99
2022-10-19T06:19:21.643Z,1005.00
2022-10-19T06:20:21.638Z,1004.98
2022-10-19T06:21:21.622Z,1005.00
2022-10-19T06:22:21.620Z,1004.99
2022-10-19T06:23:21.602Z,1005.01
2022-10-19T06:24:21.614Z,1005.01
2022-10-19T06:25:21.590Z,1005.02
2022-10-19T06:26:21.578Z,1005.01
2022-10-19T06:27:21.632Z,1005.05
2022-10-19T06:28:21.574Z,1005.01
2022-10-19T06:29:21.577Z,1005.07
2022-10-19T06:30:21.649Z,1005.03
2022-10-19T06:31:21.550Z,1005.03
2022-10-19T06:32:21.534Z,1005.02
2022-10-19T06:33:21.532Z,1005.01
2022-10-19T06:34:21.619Z,1004.99
2022-10-19T06:35:21.545Z,1005.01
2022-10-19T06:36:21.514Z,1005.04
2022-10-19T06:37:21.505Z,1005.08
2022-10-19T06:38:21.493Z,1005.13
2022-10-19T06:39:21.494Z,1005.09
2022-10-19T06:40:21.531Z,1005.12
2022-10-19T06:41:21.477Z,1005.13
2022-10-19T06:42:21.473Z,1005.11
2022-10-19T06:43:21.461Z,1005.14
2022-10-19T06:44:21.456Z,1005.15
2022-10-19T06:45:21.470Z,1005.13
2022-10-19T06:46:21.437Z,1005.13
2022-10-19T06:47:21.430Z,1005.15
2022-10-19T06:48:21.438Z,1005.14
2022-10-19T06:49:21.415Z,1005.15
2022-10-19T06:50:21.417Z,1005.11
2022-10-19T06:51:21.405Z,1005.16
2022-10-19T06:52:21.394Z,1005.17
2022-10-19T06:53:21.391Z,1005.17
2022-10-19T06:54:21.389Z,1005.16
2022-10-19T06:55:21.414Z,1005.15
2022-10-19T06:56:21.405Z,1005.20
2022-10-19T06:57:21.540Z,1005.18
2022-10-19T06:58:21.353Z,1005.17
2022-10-19T06:59:21.395Z,1005.11
2022-10-19T07:00:21.349Z,1005.11
2022-10-19T07:01:21.407Z,1005.17
2022-10-19T07:02:21.325Z,1005.18
2022-10-19T07:03:21.362Z,1005.18
2022-10-19T07:04:21.305Z,1005.18
2022-10-19T07:05:21.302Z,1005.14
2022-10-19T07:06:21.317Z,1005.15
2022-10-19T07:07:21.286Z,1005.14
2022-10-19T07:08:21.289Z,1005.21
2022-10-19T07:09:21.262Z,1005.22
2022-10-19T07:10:21.290Z,1005.24
2022-10-19T07:11:21.262Z,1005.18
2022-10-19T07:12:21.258Z,1005.25
2022-10-19T07:13:21.291Z,1005.22
2022-10-19T07:14:21.241Z,1005.22
2022-10-19T07:15:21.230Z,1005.27
2022-10-19T07:16:21.737Z,1005.32
2022-10-19T07:17:21.213Z,1005.24
2022-10-19T07:18:21.230Z,1005.24
2022-10-19T07:19:21.201Z,1005.26
2022-10-19T07:20:21.190Z,1005.30
2022-10-19T07:21:21.181Z,1005.33
2022-10-19T07:22:25.770Z,1005.33
2022-10-19T07:23:23.184Z,1005.30
2022-10-19T07:24:21.165Z,1005.32
2022-10-19T07:25:21.157Z,1005.39
2022-10-19T07:26:21.155Z,1005.39
2022-10-19T07:27:21.175Z,1005.45
2022-10-19T07:28:21.150Z,1005.46
2022-10-19T07:29:21.123Z,1005.43
2022-10-19T07:30:21.126Z,1005.43
2022-10-19T07:31:21.122Z,1005.45
2022-10-19T07:32:21.118Z,1005.47
2022-10-19T07:33:21.101Z,1005.43
2022-10-19T07:34:24.164Z,1005.40
2022-10-19T07:35:22.094Z,1005.44
2022-10-19T07:36:21.084Z,1005.38
2022-10-19T07:37:21.080Z,1005.43
2022-10-19T07:38:21.101Z,1005.32
2022-10-19T07:39:21.069Z,1005.33
2022-10-19T07:40:21.074Z,1005.28
2022-10-19T07:41:21.058Z,1005.36
2022-10-19T07:43:21.033Z,1005.36
2022-10-19T07:44:21.022Z,1005.30
2022-10-19T07:45:21.028Z,1005.29
2022-10-19T07:46:21.024Z,1005.32
2022-10-19T07:47:21.017Z,1005.22
2022-10-19T07:48:20.998Z,1005.25
2022-10-19T07:49:21.048Z,1005.19
2022-10-19T07:50:21.019Z,1005.24
2022-10-19T07:51:21.049Z,1005.17
2022-10-19T07:52:20.973Z,1005.28
2022-10-19T07:53:20.972Z,1005.26
2022-10-19T07:54:20.960Z,1005.20
2022-10-19T07:55:20.964Z,1005.21
2022-10-19T07:56:20.965Z,1005.18
2022-10-19T07:57:20.940Z,1005.25
2022-10-19T07:58:20.941Z,1005.23
2022-10-19T07:59:20.929Z,1005.29
2022-10-19T08:00:20.961Z,1005.31
2022-10-19T08:01:20.933Z,1005.26
2022-10-19T08:02:20.995Z,1005.25
2022-10-19T08:05:22.926Z,1005.27
2022-10-19T08:06:20.929Z,1005.25
2022-10-19T08:07:20.893Z,1005.24
2022-10-19T08:08:20.874Z,1005.28
2022-10-19T08:09:50.924Z,1005.27
2022-10-19T08:10:22.872Z,1005.26
2022-10-19T08:11:20.858Z,1005.21
2022-10-19T08:12:20.849Z,1005.23
2022-10-19T08:13:20.876Z,1005.25
2022-10-19T08:14:20.838Z,1005.23
2022-10-19T08:15:20.830Z,1005.21
2022-10-19T08:16:20.828Z,1005.22
2022-10-19T08:17:20.885Z,1005.28
2022-10-19T08:18:20.815Z,1005.23
2022-10-19T08:19:20.805Z,1005.29
2022-10-19T08:20:20.802Z,1005.25
2022-10-19T08:21:20.813Z,1005.27
2022-10-19T08:22:20.797Z,1005.23
2022-10-19T08:23:20.802Z,1005.27
2022-10-19T08:24:20.777Z,1005.26
2022-10-19T08:25:20.768Z,1005.26
2022-10-19T08:26:20.760Z,1005.24
2022-10-19T08:27:20.753Z,1005.21
2022-10-19T08:28:20.757Z,1005.17
2022-10-19T08:29:20.781Z,1005.22
2022-10-19T08:30:20.797Z,1005.16
2022-10-19T08:31:20.729Z,1005.19
2022-10-19T08:32:20.722Z,1005.11
2022-10-19T08:33:20.721Z,1005.18
2022-10-19T08:34:20.736Z,1005.19
2022-10-19T08:35:20.700Z,1005.12
2022-10-19T08:36:20.702Z,1005.14
2022-10-19T08:37:40.090Z,1005.16
2022-10-19T08:38:21.679Z,1005.23
2022-10-19T08:39:20.680Z,1005.16
2022-10-19T08:40:20.720Z,1005.19
2022-10-19T08:41:20.652Z,1005.14
2022-10-19T08:42:20.645Z,1005.15
2022-10-19T08:43:20.653Z,1005.13
2022-10-19T08:44:20.649Z,1005.14
2022-10-19T08:45:20.655Z,1005.15
2022-10-19T08:46:20.621Z,1005.07
2022-10-19T08:47:33.238Z,1005.08
2022-10-19T08:48:22.608Z,1005.04
2022-10-19T08:49:20.599Z,1005.02
2022-10-19T08:50:20.636Z,1004.99
2022-10-19T08:51:20.589Z,1004.95
2022-10-19T08:52:20.590Z,1004.94
2022-10-19T08:53:20.568Z,1004.97
2022-10-19T08:54:20.556Z,1004.97
2022-10-19T08:55:20.762Z,1004.96
2022-10-19T08:56:38.787Z,1004.92
2022-10-19T08:57:22.564Z,1004.95
2022-10-19T08:58:20.564Z,1004.86
2022-10-19T08:59:20.527Z,1004.89
2022-10-19T09:00:20.552Z,1004.87
2022-10-19T09:01:20.528Z,1004.84
2022-10-19T09:02:20.519Z,1004.87
2022-10-19T09:03:32.088Z,1005.01
2022-10-19T09:04:21.501Z,1005.14
2022-10-19T09:05:20.485Z,1004.88
2022-10-19T09:06:20.499Z,1004.82
2022-10-19T09:07:20.488Z,1004.84
2022-10-19T09:08:20.468Z,1004.78
2022-10-19T09:09:20.452Z,1004.77
2022-10-19T09:10:20.556Z,1004.85
2022-10-19T09:11:20.448Z,1004.78
2022-10-19T09:12:20.442Z,1004.85
2022-10-19T09:13:20.451Z,1004.72
2022-10-19T09:14:20.445Z,1004.77
2022-10-19T09:15:20.442Z,1004.74
2022-10-19T09:16:20.416Z,1004.71
2022-10-19T09:17:20.410Z,1004.67
2022-10-19T09:18:20.400Z,1004.68
2022-10-19T09:19:20.401Z,1004.64
2022-10-19T09:20:20.388Z,1004.68
2022-10-19T09:21:20.382Z,1004.66
2022-10-19T09:22:20.372Z,1004.67
2022-10-19T09:23:20.372Z,1004.66
2022-10-19T09:24:20.372Z,1004.71
2022-10-19T09:25:20.356Z,1004.74
2022-10-19T09:26:20.348Z,1004.74
2022-10-19T09:27:20.345Z,1004.74
2022-10-19T09:28:20.328Z,1004.77
2022-10-19T09:29:20.372Z,1004.80
2022-10-19T09:30:20.339Z,1004.81
2022-10-19T09:31:20.328Z,1004.85
2022-10-19T09:32:20.304Z,1004.89
2022-10-19T09:33:20.300Z,1004.86
2022-10-19T09:34:20.304Z,1004.86
2022-10-19T09:35:20.304Z,1004.87
2022-10-19T09:36:23.051Z,1004.85
2022-10-19T09:37:25.970Z,1004.86
2022-10-19T09:38:22.272Z,1004.82
2022-10-19T09:39:20.260Z,1004.81
2022-10-19T09:40:20.268Z,1004.73
2022-10-19T09:41:20.252Z,1004.74
2022-10-19T09:42:20.245Z,1004.68
2022-10-19T09:43:20.250Z,1004.73
2022-10-19T09:44:20.227Z,1004.71
2022-10-19T09:45:20.243Z,1004.66
2022-10-19T09:46:20.604Z,1004.65
2022-10-19T09:47:21.216Z,1004.72
2022-10-19T09:48:20.204Z,1004.76
2022-10-19T09:49:20.201Z,1004.73
2022-10-19T09:50:20.231Z,1004.67
2022-10-19T09:51:20.183Z,1004.68
2022-10-19T09:52:20.183Z,1004.67
2022-10-19T09:53:20.177Z,1004.69
2022-10-19T09:54:20.177Z,1004.71
2022-10-19T09:55:20.160Z,1004.73
2022-10-19T09:56:20.169Z,1004.72
2022-10-19T09:57:20.161Z,1004.68
2022-10-19T09:58:21.147Z,1004.69
2022-10-19T09:59:20.139Z,1004.73
2022-10-19T10:00:20.136Z,1004.79
2022-10-19T10:01:20.147Z,1004.76
2022-10-19T10:02:20.128Z,1004.77
2022-10-19T10:03:20.122Z,1004.78
2022-10-19T10:04:20.116Z,1004.83
2022-10-19T10:05:20.104Z,1004.77
2022-10-19T10:06:20.133Z,1004.87
2022-10-19T10:07:20.089Z,1004.78
2022-10-19T10:08:20.084Z,1004.72
2022-10-19T10:09:20.067Z,1004.78
2022-10-19T10:10:20.079Z,1004.76
2022-10-19T10:11:20.077Z,1004.69
2022-10-19T10:12:20.052Z,1004.62
2022-10-19T10:13:20.054Z,1004.62
2022-10-19T10:14:20.035Z,1004.61
2022-10-19T10:15:20.039Z,1004.57
2022-10-19T10:16:20.049Z,1004.56
2022-10-19T10:17:20.018Z,1004.54
2022-10-19T10:18:20.017Z,1004.44
2022-10-19T10:19:23.108Z,1004.46
2022-10-19T10:20:20.000Z,1004.70
2022-10-19T10:21:25.179Z,1004.68
2022-10-19T10:22:22.001Z,1004.77
2022-10-19T10:23:19.980Z,1004.72
2022-10-19T10:24:19.963Z,1004.55
2022-10-19T10:25:19.967Z,1004.62
2022-10-19T10:26:19.983Z,1004.57
2022-10-19T10:27:19.947Z,1004.55
2022-10-19T10:28:19.947Z,1004.64
2022-10-19T10:29:19.936Z,1004.53
2022-10-19T10:30:19.931Z,1004.48
2022-10-19T10:31:19.952Z,1004.44
2022-10-19T10:32:19.934Z,1004.41
2022-10-19T10:33:27.279Z,1004.41
2022-10-19T10:34:28.514Z,1004.41
2022-10-19T10:35:21.907Z,1004.39
2022-10-19T10:36:19.904Z,1004.39
2022-10-19T10:37:19.940Z,1004.41
2022-10-19T10:38:19.876Z,1004.30
2022-10-19T10:39:19.876Z,1004.36
2022-10-19T10:40:23.286Z,1004.34
2022-10-19T10:41:20.868Z,1004.32
2022-10-19T10:42:19.847Z,1004.32
2022-10-19T10:43:19.867Z,1004.31
2022-10-19T10:44:19.840Z,1004.36
2022-10-19T10:45:19.831Z,1004.29
2022-10-19T10:46:19.819Z,1004.33
2022-10-19T10:47:19.815Z,1004.33
2022-10-19T10:48:19.832Z,1004.31
2022-10-19T10:49:19.796Z,1004.28
2022-10-19T10:50:19.796Z,1004.28
2022-10-19T10:51:19.794Z,1004.30
2022-10-19T10:52:19.795Z,1004.46
2022-10-19T10:53:19.775Z,1004.45
2022-10-19T10:54:19.770Z,1004.48
2022-10-19T10:55:19.773Z,1004.36
2022-10-19T10:56:19.764Z,1004.27
2022-10-19T10:57:19.824Z,1004.10
2022-10-19T10:58:19.743Z,1004.40
2022-10-19T10:59:19.744Z,1004.10
2022-10-19T11:00:19.773Z,1004.21
2022-10-19T11:01:19.758Z,1004.05
2022-10-19T11:02:19.760Z,1003.98
2022-10-19T11:03:19.747Z,1003.98
2022-10-19T11:04:19.711Z,1004.02
2022-10-19T11:05:19.711Z,1003.93
2022-10-19T11:06:19.744Z,1003.88
2022-10-19T11:07:19.713Z,1003.91
2022-10-19T11:08:19.700Z,1003.94
2022-10-19T11:09:20.682Z,1003.89
2022-10-19T11:10:19.683Z,1003.87
2022-10-19T11:11:19.667Z,1003.82
2022-10-19T11:12:19.671Z,1003.80
2022-10-19T11:13:19.647Z,1003.78
2022-10-19T11:14:19.663Z,1003.84
2022-10-19T11:15:19.715Z,1003.74
2022-10-19T11:16:19.644Z,1003.75
2022-10-19T11:17:19.637Z,1003.79
2022-10-19T11:18:19.625Z,1004.02
2022-10-19T11:19:19.654Z,1003.82
2022-10-19T11:20:19.628Z,1003.80
2022-10-19T11:21:19.620Z,1003.72
2022-10-19T11:22:22.427Z,1003.65
2022-10-19T11:23:21.596Z,1003.66
2022-10-19T11:24:19.685Z,1003.71
2022-10-19T11:25:19.619Z,1003.68
2022-10-19T11:26:19.582Z,1003.66
2022-10-19T11:27:19.564Z,1003.64
2022-10-19T11:28:19.560Z,1003.81
2022-10-19T11:29:19.552Z,1003.83
2022-10-19T11:30:20.191Z,1003.71
2022-10-19T11:31:19.626Z,1003.51
2022-10-19T11:32:19.530Z,1003.61
2022-10-19T11:33:19.560Z,1003.52
2022-10-19T11:34:23.620Z,1003.59
2022-10-19T11:35:20.526Z,1003.66
2022-10-19T11:36:19.510Z,1003.55
2022-10-19T11:37:19.512Z,1003.47
2022-10-19T11:38:22.107Z,1003.42
2022-10-19T11:39:20.503Z,1003.49
2022-10-19T11:40:22.094Z,1003.46
2022-10-19T11:41:20.491Z,1003.44
2022-10-19T11:42:19.474Z,1003.45
2022-10-19T11:43:20.454Z,1003.56
2022-10-19T11:44:20.159Z,1003.41
2022-10-19T11:45:19.467Z,1003.45
2022-10-19T11:46:19.454Z,1003.39
2022-10-19T11:47:19.456Z,1003.64
2022-10-19T11:48:19.466Z,1003.53
2022-10-19T11:49:19.431Z,1003.40
2022-10-19T11:50:19.425Z,1003.60
2022-10-19T11:51:21.737Z,1003.46
2022-10-19T11:52:21.196Z,1003.48
2022-10-19T11:53:19.427Z,1003.27
2022-10-19T11:54:19.407Z,1003.43
2022-10-19T11:55:19.412Z,1003.35
2022-10-19T11:56:19.414Z,1003.23
2022-10-19T11:57:19.410Z,1003.36
2022-10-19T11:58:19.382Z,1003.37
2022-10-19T11:59:19.378Z,1003.37
2022-10-19T12:00:39.170Z,1003.11
2022-10-19T12:01:21.410Z,1003.11
2022-10-19T12:02:19.449Z,1003.20
2022-10-19T12:03:19.355Z,1003.34
2022-10-19T12:04:19.343Z,1003.35
2022-10-19T12:05:19.338Z,1003.19
2022-10-19T12:06:19.363Z,1003.00
2022-10-19T12:07:19.339Z,1003.03
2022-10-19T12:09:21.201Z,1002.80
2022-10-19T12:10:19.334Z,1002.59
2022-10-19T12:11:19.303Z,1002.42